sensor_id;sensor_type;location;lat;lon;timestamp;pressure;altitude;pressure_sealevel;temperature;humidity
9139;BME280;4604;48.616;9.548;2023-01-27T00:01:23;97085.28;;;-1.77;100.00
9139;BME280;4604;48.616;9.548;2023-01-27T00:03:50;97087.22;;;-1.60;100.00
9139;BME280;4604;48.616;9.548;2023-01-27T00:06:16;97080.81;;;-1.74;100.00
9139;BME280;4604;48.616;9.548;2023-01-27T00:08:44;97085.88;;;-1.70;100.00
9139;BME280;4604;48.616;9.548;2023-01-27T00:11:11;97083.03;;;-1.64;100.00
9139;BME280;4604;48.616;9.548;2023-01-27T00:13:55;97093.25;;;-1.61;100.00
9139;BME280;4604;48.616;9.548;2023-01-27T00:16:22;97082.16;;;-1.63;100.00
9139;BME280;4604;48.616;9.548;2023-01-27T00:18:49;97023.59;;;-1.88;100.00
9139;BME280;4604;48.616;9.548;2023-01-27T00:21:16;97006.06;;;-2.02;100.00
9139;BME280;4604;48.616;9.548;2023-01-27T00:24:01;97016.16;;;-1.96;100.00
9139;BME280;4604;48.616;9.548;2023-01-27T00:26:46;97075.16;;;-1.61;100.00
9139;BME280;4604;48.616;9.548;2023-01-27T00:29:13;97072.69;;;-1.64;100.00
9139;BME280;4604;48.616;9.548;2023-01-27T00:31:39;97048.97;;;-1.76;100.00
9139;BME280;4604;48.616;9.548;2023-01-27T00:34:23;97078.41;;;-1.56;100.00
9139;BME280;4604;48.616;9.548;2023-01-27T00:36:50;97079.19;;;-1.54;100.00
9139;BME280;4604;48.616;9.548;2023-01-27T00:39:18;97079.97;;;-1.52;100.00
9139;BME280;4604;48.616;9.548;2023-01-27T00:41:45;97077.03;;;-1.43;100.00
9139;BME280;4604;48.616;9.548;2023-01-27T00:44:11;97071.00;;;-1.43;100.00
9139;BME280;4604;48.616;9.548;2023-01-27T00:46:38;97059.41;;;-1.55;100.00
9139;BME280;4604;48.616;9.548;2023-01-27T00:49:05;97054.63;;;-1.66;100.00
9139;BME280;4604;48.616;9.548;2023-01-27T00:51:32;97034.84;;;-1.89;100.00
9139;BME280;4604;48.616;9.548;2023-01-27T00:54:03;97064.69;;;-1.58;100.00
9139;BME280;4604;48.616;9.548;2023-01-27T00:56:32;97067.81;;;-1.50;100.00
9139;BME280;4604;48.616;9.548;2023-01-27T00:58:58;97059.75;;;-1.64;100.00
9139;BME280;4604;48.616;9.548;2023-01-27T01:01:26;97080.09;;;-1.55;100.00
9139;BME280;4604;48.616;9.548;2023-01-27T01:03:53;97090.47;;;-1.35;100.00
9139;BME280;4604;48.616;9.548;2023-01-27T01:06:20;97086.25;;;-1.58;100.00
9139;BME280;4604;48.616;9.548;2023-01-27T01:08:47;97090.19;;;-1.49;100.00
9139;BME280;4604;48.616;9.548;2023-01-27T01:11:16;97075.81;;;-1.56;100.00
9139;BME280;4604;48.616;9.548;2023-01-27T01:13:45;97069.09;;;-1.60;100.00
9139;BME280;4604;48.616;9.548;2023-01-27T01:16:13;97082.38;;;-1.47;100.00
9139;BME280;4604;48.616;9.548;2023-01-27T01:18:41;97066.97;;;-1.51;100.00
9139;BME280;4604;48.616;9.548;2023-01-27T01:21:09;97086.75;;;-1.49;100.00
9139;BME280;4604;48.616;9.548;2023-01-27T01:23:37;97099.66;;;-1.48;100.00
9139;BME280;4604;48.616;9.548;2023-01-27T01:26:05;97063.09;;;-1.61;100.00
9139;BME280;4604;48.616;9.548;2023-01-27T01:28:32;97093.47;;;-1.44;100.00
9139;BME280;4604;48.616;9.548;2023-01-27T01:31:04;97096.81;;;-1.64;100.00
9139;BME280;4604;48.616;9.548;2023-01-27T01:33:31;97090.84;;;-1.66;100.00
9139;BME280;4604;48.616;9.548;2023-01-27T01:36:03;97095.97;;;-1.64;100.00
9139;BME280;4604;48.616;9.548;2023-01-27T01:38:29;97094.88;;;-1.59;100.00
9139;BME280;4604;48.616;9.548;2023-01-27T01:40:56;97087.59;;;-1.71;100.00
9139;BME280;4604;48.616;9.548;2023-01-27T01:43:23;97069.97;;;-1.83;100.00
9139;BME280;4604;48.616;9.548;2023-01-27T01:45:53;97080.09;;;-1.55;100.00
9139;BME280;4604;48.616;9.548;2023-01-27T01:48:32;97082.88;;;-1.60;100.00
9139;BME280;4604;48.616;9.548;2023-01-27T01:51:03;97089.22;;;-1.68;100.00
9139;BME280;4604;48.616;9.548;2023-01-27T01:53:36;97080.63;;;-1.69;100.00
9139;BME280;4604;48.616;9.548;2023-01-27T01:56:08;97081.72;;;-1.75;100.00
9139;BME280;4604;48.616;9.548;2023-01-27T01:58:37;97052.53;;;-1.78;100.00
9139;BME280;4604;48.616;9.548;2023-01-27T02:01:05;97058.00;;;-1.64;100.00
9139;BME280;4604;48.616;9.548;2023-01-27T02:03:34;97072.66;;;-1.63;100.00
9139;BME280;4604;48.616;9.548;2023-01-27T02:06:04;97052.00;;;-1.64;100.00
9139;BME280;4604;48.616;9.548;2023-01-27T02:08:35;97063.47;;;-1.49;100.00
9139;BME280;4604;48.616;9.548;2023-01-27T02:11:04;97069.31;;;-1.44;100.00
9139;BME280;4604;48.616;9.548;2023-01-27T02:13:31;97067.94;;;-1.53;100.00
9139;BME280;4604;48.616;9.548;2023-01-27T02:15:58;97056.50;;;-1.47;100.00
9139;BME280;4604;48.616;9.548;2023-01-27T02:18:25;97071.31;;;-1.51;100.00
9139;BME280;4604;48.616;9.548;2023-01-27T02:20:54;97062.88;;;-1.56;100.00
9139;BME280;4604;48.616;9.548;2023-01-27T02:23:29;97070.59;;;-1.55;100.00
9139;BME280;4604;48.616;9.548;2023-01-27T02:26:02;97066.50;;;-1.60;100.00
9139;BME280;4604;48.616;9.548;2023-01-27T02:28:31;97068.13;;;-1.58;100.00
9139;BME280;4604;48.616;9.548;2023-01-27T02:30:58;97061.81;;;-1.51;100.00
9139;BME280;4604;48.616;9.548;2023-01-27T02:33:24;97059.22;;;-1.51;100.00
9139;BME280;4604;48.616;9.548;2023-01-27T02:35:57;97056.34;;;-1.44;100.00
9139;BME280;4604;48.616;9.548;2023-01-27T02:38:29;97035.19;;;-1.54;100.00
9139;BME280;4604;48.616;9.548;2023-01-27T02:41:01;97049.19;;;-1.38;100.00
9139;BME280;4604;48.616;9.548;2023-01-27T02:43:29;97028.53;;;-1.60;100.00
9139;BME280;4604;48.616;9.548;2023-01-27T02:45:56;97043.88;;;-1.55;100.00
9139;BME280;4604;48.616;9.548;2023-01-27T02:48:23;97001.06;;;-1.84;100.00
9139;BME280;4604;48.616;9.548;2023-01-27T02:50:50;97016.56;;;-1.84;100.00
9139;BME280;4604;48.616;9.548;2023-01-27T02:53:16;97044.88;;;-1.59;100.00
9139;BME280;4604;48.616;9.548;2023-01-27T02:55:43;97049.47;;;-1.66;100.00
9139;BME280;4604;48.616;9.548;2023-01-27T02:58:11;97031.47;;;-1.69;100.00
9139;BME280;4604;48.616;9.548;2023-01-27T03:00:39;97040.81;;;-1.65;100.00
9139;BME280;4604;48.616;9.548;2023-01-27T03:03:07;97053.78;;;-1.66;100.00
9139;BME280;4604;48.616;9.548;2023-01-27T03:05:33;97052.91;;;-1.65;100.00
9139;BME280;4604;48.616;9.548;2023-01-27T03:08:00;97027.69;;;-1.60;100.00
9139;BME280;4604;48.616;9.548;2023-01-27T03:10:27;97040.50;;;-1.57;100.00
9139;BME280;4604;48.616;9.548;2023-01-27T03:12:54;97042.56;;;-1.65;100.00
9139;BME280;4604;48.616;9.548;2023-01-27T03:15:22;97051.16;;;-1.65;100.00
9139;BME280;4604;48.616;9.548;2023-01-27T03:18:07;97048.25;;;-1.57;100.00
9139;BME280;4604;48.616;9.548;2023-01-27T03:20:41;97047.66;;;-1.64;100.00
9139;BME280;4604;48.616;9.548;2023-01-27T03:23:08;97049.47;;;-1.66;100.00
9139;BME280;4604;48.616;9.548;2023-01-27T03:25:39;97048.75;;;-1.69;100.00
9139;BME280;4604;48.616;9.548;2023-01-27T03:28:06;97058.88;;;-1.63;100.00
9139;BME280;4604;48.616;9.548;2023-01-27T03:30:35;97053.97;;;-1.71;100.00
9139;BME280;4604;48.616;9.548;2023-01-27T03:33:02;97058.97;;;-1.66;100.00
9139;BME280;4604;48.616;9.548;2023-01-27T03:35:30;97034.44;;;-1.78;100.00
9139;BME280;4604;48.616;9.548;2023-01-27T03:38:04;97056.34;;;-1.65;100.00
9139;BME280;4604;48.616;9.548;2023-01-27T03:40:49;97056.56;;;-1.71;100.00
9139;BME280;4604;48.616;9.548;2023-01-27T03:43:33;97061.75;;;-1.71;100.00
9139;BME280;4604;48.616;9.548;2023-01-27T03:46:19;97060.97;;;-1.73;100.00
9139;BME280;4604;48.616;9.548;2023-01-27T03:48:48;97070.75;;;-1.59;100.00
9139;BME280;4604;48.616;9.548;2023-01-27T03:51:16;97068.00;;;-1.77;100.00
9139;BME280;4604;48.616;9.548;2023-01-27T03:53:43;97059.41;;;-1.77;100.00
9139;BME280;4604;48.616;9.548;2023-01-27T03:56:10;97073.06;;;-1.74;100.00
9139;BME280;4604;48.616;9.548;2023-01-27T03:58:37;97074.00;;;-1.76;100.00
9139;BME280;4604;48.616;9.548;2023-01-27T04:01:07;97069.88;;;-1.80;100.00
9139;BME280;4604;48.616;9.548;2023-01-27T04:03:39;97074.28;;;-1.60;100.00
9139;BME280;4604;48.616;9.548;2023-01-27T04:06:25;97056.56;;;-1.71;100.00
9139;BME280;4604;48.616;9.548;2023-01-27T04:09:16;97060.97;;;-1.73;100.00
9139;BME280;4604;48.616;9.548;2023-01-27T04:11:43;97047.66;;;-1.86;100.00
9139;BME280;4604;48.616;9.548;2023-01-27T04:14:26;97055.19;;;-1.80;100.00
9139;BME280;4604;48.616;9.548;2023-01-27T04:16:55;97049.78;;;-1.74;100.00
9139;BME280;4604;48.616;9.548;2023-01-27T04:19:24;97041.22;;;-1.76;100.00
9139;BME280;4604;48.616;9.548;2023-01-27T04:21:51;97039.25;;;-1.69;100.00
9139;BME280;4604;48.616;9.548;2023-01-27T04:24:19;97025.81;;;-1.79;100.00
9139;BME280;4604;48.616;9.548;2023-01-27T04:26:51;96976.31;;;-2.12;100.00
9139;BME280;4604;48.616;9.548;2023-01-27T04:29:19;96976.09;;;-2.07;100.00
9139;BME280;4604;48.616;9.548;2023-01-27T04:31:47;97030.78;;;-1.73;100.00
9139;BME280;4604;48.616;9.548;2023-01-27T04:34:14;96990.72;;;-2.06;100.00
9139;BME280;4604;48.616;9.548;2023-01-27T04:36:42;97043.28;;;-1.84;100.00
9139;BME280;4604;48.616;9.548;2023-01-27T04:39:10;97027.81;;;-1.85;100.00
9139;BME280;4604;48.616;9.548;2023-01-27T04:41:37;97038.41;;;-1.91;100.00
9139;BME280;4604;48.616;9.548;2023-01-27T04:44:05;97030.03;;;-1.98;100.00
9139;BME280;4604;48.616;9.548;2023-01-27T04:46:32;97058.25;;;-1.70;100.00
9139;BME280;4604;48.616;9.548;2023-01-27T04:49:00;97066.81;;;-1.68;100.00
9139;BME280;4604;48.616;9.548;2023-01-27T04:51:27;97078.34;;;-1.55;100.00
9139;BME280;4604;48.616;9.548;2023-01-27T04:53:55;97075.81;;;-1.56;100.00
9139;BME280;4604;48.616;9.548;2023-01-27T04:56:24;97084.25;;;-1.73;100.00
9139;BME280;4604;48.616;9.548;2023-01-27T04:58:52;97081.13;;;-1.81;100.00
9139;BME280;4604;48.616;9.548;2023-01-27T05:01:20;97068.13;;;-1.80;100.00
9139;BME280;4604;48.616;9.548;2023-01-27T05:03:47;97075.75;;;-1.77;100.00
9139;BME280;4604;48.616;9.548;2023-01-27T05:06:14;97050.25;;;-1.86;100.00
9139;BME280;4604;48.616;9.548;2023-01-27T05:08:42;97081.72;;;-1.75;100.00
9139;BME280;4604;48.616;9.548;2023-01-27T05:11:10;97081.19;;;-1.83;100.00
9139;BME280;4604;48.616;9.548;2023-01-27T05:13:38;97082.50;;;-1.73;100.00
9139;BME280;4604;48.616;9.548;2023-01-27T05:16:08;97090.28;;;-1.73;100.00
9139;BME280;4604;48.616;9.548;2023-01-27T05:18:37;97083.41;;;-1.74;100.00
9139;BME280;4604;48.616;9.548;2023-01-27T05:21:04;97089.53;;;-1.76;100.00
9139;BME280;4604;48.616;9.548;2023-01-27T05:23:32;97078.69;;;-1.86;100.00
9139;BME280;4604;48.616;9.548;2023-01-27T05:26:08;97079.81;;;-1.69;100.00
9139;BME280;4604;48.616;9.548;2023-01-27T05:28:38;97074.84;;;-1.76;100.00
9139;BME280;4604;48.616;9.548;2023-01-27T05:31:07;97080.75;;;-1.72;100.00
9139;BME280;4604;48.616;9.548;2023-01-27T05:33:35;97060.78;;;-1.90;100.00
9139;BME280;4604;48.616;9.548;2023-01-27T05:36:03;97036.78;;;-1.94;100.00
9139;BME280;4604;48.616;9.548;2023-01-27T05:38:31;97032.16;;;-1.86;100.00
9139;BME280;4604;48.616;9.548;2023-01-27T05:40:59;97023.19;;;-1.99;100.00
9139;BME280;4604;48.616;9.548;2023-01-27T05:43:27;96999.84;;;-2.20;100.00
9139;BME280;4604;48.616;9.548;2023-01-27T05:46:04;97006.63;;;-2.17;100.00
9139;BME280;4604;48.616;9.548;2023-01-27T05:48:33;97066.44;;;-1.81;100.00
9139;BME280;4604;48.616;9.548;2023-01-27T05:51:00;97026.88;;;-2.05;100.00
9139;BME280;4604;48.616;9.548;2023-01-27T05:53:27;97090.63;;;-1.60;100.00
9139;BME280;4604;48.616;9.548;2023-01-27T05:55:54;96995.47;;;-2.18;100.00
9139;BME280;4604;48.616;9.548;2023-01-27T05:58:21;97014.16;;;-2.11;100.00
9139;BME280;4604;48.616;9.548;2023-01-27T06:00:48;97060.78;;;-1.68;100.00
9139;BME280;4604;48.616;9.548;2023-01-27T06:03:17;96992.47;;;-2.07;100.00
9139;BME280;4604;48.616;9.548;2023-01-27T06:05:55;97018.03;;;-1.99;100.00
9139;BME280;4604;48.616;9.548;2023-01-27T06:08:23;97088.69;;;-1.55;100.00
9139;BME280;4604;48.616;9.548;2023-01-27T06:10:51;97072.25;;;-1.76;100.00
9139;BME280;4604;48.616;9.548;2023-01-27T06:13:19;97033.38;;;-1.95;100.00
9139;BME280;4604;48.616;9.548;2023-01-27T06:15:46;97090.63;;;-1.60;100.00
9139;BME280;4604;48.616;9.548;2023-01-27T06:18:14;97088.09;;;-1.61;100.00
9139;BME280;4604;48.616;9.548;2023-01-27T06:20:43;97064.22;;;-1.68;100.00
9139;BME280;4604;48.616;9.548;2023-01-27T06:23:11;97089.44;;;-1.51;100.00
9139;BME280;4604;48.616;9.548;2023-01-27T06:25:40;97076.13;;;-1.64;100.00
9139;BME280;4604;48.616;9.548;2023-01-27T06:28:08;97094.03;;;-1.37;100.00
9139;BME280;4604;48.616;9.548;2023-01-27T06:30:36;97105.63;;;-1.46;100.00
9139;BME280;4604;48.616;9.548;2023-01-27T06:33:03;97101.50;;;-1.52;100.00
9139;BME280;4604;48.616;9.548;2023-01-27T06:35:31;97097.56;;;-1.60;100.00
9139;BME280;4604;48.616;9.548;2023-01-27T06:38:01;97103.38;;;-1.55;100.00
9139;BME280;4604;48.616;9.548;2023-01-27T06:40:30;97114.03;;;-1.41;100.00
9139;BME280;4604;48.616;9.548;2023-01-27T06:42:57;97131.19;;;-1.38;100.00
9139;BME280;4604;48.616;9.548;2023-01-27T06:45:24;97134.88;;;-1.44;100.00
9139;BME280;4604;48.616;9.548;2023-01-27T06:47:55;97133.00;;;-1.40;100.00
9139;BME280;4604;48.616;9.548;2023-01-27T06:50:22;97127.50;;;-1.33;100.00
9139;BME280;4604;48.616;9.548;2023-01-27T06:52:49;97099.66;;;-1.48;100.00
9139;BME280;4604;48.616;9.548;2023-01-27T06:55:17;97121.81;;;-1.41;100.00
9139;BME280;4604;48.616;9.548;2023-01-27T06:57:44;97142.53;;;-1.20;100.00
9139;BME280;4604;48.616;9.548;2023-01-27T07:00:13;97136.59;;;-1.44;100.00
9139;BME280;4604;48.616;9.548;2023-01-27T07:02:40;97134.50;;;-1.57;100.00
9139;BME280;4604;48.616;9.548;2023-01-27T07:05:07;97133.47;;;-1.53;100.00
9139;BME280;4604;48.616;9.548;2023-01-27T07:07:34;97140.50;;;-1.56;100.00
9139;BME280;4604;48.616;9.548;2023-01-27T07:10:00;97143.28;;;-1.61;100.00
9139;BME280;4604;48.616;9.548;2023-01-27T07:12:28;97146.53;;;-1.56;100.00
9139;BME280;4604;48.616;9.548;2023-01-27T07:14:55;97159.97;;;-1.46;100.00
9139;BME280;4604;48.616;9.548;2023-01-27T07:17:25;97177.03;;;-1.64;100.00
9139;BME280;4604;48.616;9.548;2023-01-27T07:19:52;97171.00;;;-1.64;100.00
9139;BME280;4604;48.616;9.548;2023-01-27T07:22:18;97160.94;;;-1.48;100.00
9139;BME280;4604;48.616;9.548;2023-01-27T07:24:45;97151.41;;;-1.48;100.00
9139;BME280;4604;48.616;9.548;2023-01-27T07:27:12;97171.47;;;-1.31;100.00
9139;BME280;4604;48.616;9.548;2023-01-27T07:29:40;97154.53;;;-1.62;100.00
9139;BME280;4604;48.616;9.548;2023-01-27T07:32:07;97179.16;;;-1.30;100.00
9139;BME280;4604;48.616;9.548;2023-01-27T07:34:34;97175.38;;;-1.43;100.00
9139;BME280;4604;48.616;9.548;2023-01-27T07:37:00;97178.31;;;-1.30;100.00
9139;BME280;4604;48.616;9.548;2023-01-27T07:39:29;97177.66;;;-1.35;100.00
9139;BME280;4604;48.616;9.548;2023-01-27T07:41:56;97183.75;;;-1.14;100.00
9139;BME280;4604;48.616;9.548;2023-01-27T07:44:23;97192.47;;;-1.39;100.00
9139;BME280;4604;48.616;9.548;2023-01-27T07:46:51;97186.03;;;-1.51;100.00
9139;BME280;4604;48.616;9.548;2023-01-27T07:49:18;97196.25;;;-1.47;100.00
9139;BME280;4604;48.616;9.548;2023-01-27T07:51:44;97201.41;;;-1.24;100.00
9139;BME280;4604;48.616;9.548;2023-01-27T07:54:11;97201.13;;;-1.18;100.00
9139;BME280;4604;48.616;9.548;2023-01-27T07:56:38;97191.69;;;-1.41;100.00
9139;BME280;4604;48.616;9.548;2023-01-27T07:59:05;97189.34;;;-1.25;100.00
9139;BME280;4604;48.616;9.548;2023-01-27T08:01:31;97184.50;;;-1.34;100.00
9139;BME280;4604;48.616;9.548;2023-01-27T08:03:59;97197.09;;;-1.03;100.00
9139;BME280;4604;48.616;9.548;2023-01-27T08:06:26;97197.19;;;-1.04;100.00
9139;BME280;4604;48.616;9.548;2023-01-27T08:08:53;97187.53;;;-1.23;100.00
9139;BME280;4604;48.616;9.548;2023-01-27T08:11:20;97191.09;;;-1.25;100.00
9139;BME280;4604;48.616;9.548;2023-01-27T08:13:46;97196.03;;;-1.19;100.00
9139;BME280;4604;48.616;9.548;2023-01-27T08:16:14;97199.38;;;-1.17;100.00
9139;BME280;4604;48.616;9.548;2023-01-27T08:18:41;97199.59;;;-1.22;100.00
9139;BME280;4604;48.616;9.548;2023-01-27T08:21:10;97197.19;;;-1.26;100.00
9139;BME280;4604;48.616;9.548;2023-01-27T08:23:37;97192.28;;;-1.34;100.00
9139;BME280;4604;48.616;9.548;2023-01-27T08:26:05;97211.25;;;-1.34;100.00
9139;BME280;4604;48.616;9.548;2023-01-27T08:28:33;97212.16;;;-1.35;100.00
9139;BME280;4604;48.616;9.548;2023-01-27T08:31:05;97190.25;;;-1.26;100.00
9139;BME280;4604;48.616;9.548;2023-01-27T08:33:32;97209.03;;;-1.21;100.00
9139;BME280;4604;48.616;9.548;2023-01-27T08:36:04;97210.34;;;-1.33;100.00
9139;BME280;4604;48.616;9.548;2023-01-27T08:38:32;97219.69;;;-1.06;100.00
9139;BME280;4604;48.616;9.548;2023-01-27T08:41:03;97218.72;;;-1.26;100.00
9139;BME280;4604;48.616;9.548;2023-01-27T08:43:30;97224.09;;;-1.31;100.00
9139;BME280;4604;48.616;9.548;2023-01-27T08:45:57;97224.38;;;-1.38;100.00
9139;BME280;4604;48.616;9.548;2023-01-27T08:48:25;97231.00;;;-1.31;100.00
9139;BME280;4604;48.616;9.548;2023-01-27T08:50:53;97234.72;;;-1.38;100.00
9139;BME280;4604;48.616;9.548;2023-01-27T08:53:20;97222.41;;;-1.32;100.00
9139;BME280;4604;48.616;9.548;2023-01-27T08:55:49;97232.31;;;-1.43;100.00
9139;BME280;4604;48.616;9.548;2023-01-27T08:58:18;97215.78;;;-1.39;100.00
9139;BME280;4604;48.616;9.548;2023-01-27T09:00:45;97219.03;;;-1.34;100.00
9139;BME280;4604;48.616;9.548;2023-01-27T09:03:12;97229.78;;;-1.22;100.00
9139;BME280;4604;48.616;9.548;2023-01-27T09:05:39;97240.91;;;-1.19;100.00
9139;BME280;4604;48.616;9.548;2023-01-27T09:08:07;97234.44;;;-1.09;100.00
9139;BME280;4604;48.616;9.548;2023-01-27T09:10:36;97222.16;;;-1.25;100.00
9139;BME280;4604;48.616;9.548;2023-01-27T09:13:04;97210.34;;;-1.33;100.00
9139;BME280;4604;48.616;9.548;2023-01-27T09:15:31;97221.06;;;-1.20;100.00
9139;BME280;4604;48.616;9.548;2023-01-27T09:17:58;97217.91;;;-1.26;100.00
9139;BME280;4604;48.616;9.548;2023-01-27T09:20:24;97227.13;;;-1.19;100.00
9139;BME280;4604;48.616;9.548;2023-01-27T09:22:53;97227.78;;;-1.14;100.00
9139;BME280;4604;48.616;9.548;2023-01-27T09:25:21;97210.53;;;-1.15;100.00
9139;BME280;4604;48.616;9.548;2023-01-27T09:27:49;97224.13;;;-1.10;100.00
9139;BME280;4604;48.616;9.548;2023-01-27T09:30:20;97220.31;;;-1.00;100.00
9139;BME280;4604;48.616;9.548;2023-01-27T09:32:47;97193.84;;;-1.30;100.00
9139;BME280;4604;48.616;9.548;2023-01-27T09:35:14;97220.47;;;-1.04;100.00
9139;BME280;4604;48.616;9.548;2023-01-27T09:37:42;97230.88;;;-0.84;100.00
9139;BME280;4604;48.616;9.548;2023-01-27T09:40:22;97239.84;;;-0.93;100.00
9139;BME280;4604;48.616;9.548;2023-01-27T09:43:00;97230.19;;;-0.88;100.00
9139;BME280;4604;48.616;9.548;2023-01-27T09:45:46;97213.69;;;-1.07;100.00
9139;BME280;4604;48.616;9.548;2023-01-27T09:48:26;97235.06;;;-1.02;100.00
9139;BME280;4604;48.616;9.548;2023-01-27T09:50:57;97231.97;;;-0.90;100.00
9139;BME280;4604;48.616;9.548;2023-01-27T09:53:54;97229.78;;;-1.22;100.00
9139;BME280;4604;48.616;9.548;2023-01-27T09:56:43;97241.06;;;-1.01;100.00
9139;BME280;4604;48.616;9.548;2023-01-27T09:59:21;97231.69;;;-1.04;100.00
9139;BME280;4604;48.616;9.548;2023-01-27T10:02:04;97237.16;;;-1.12;100.00
9139;BME280;4604;48.616;9.548;2023-01-27T10:04:51;97239.69;;;-1.10;100.00
9139;BME280;4604;48.616;9.548;2023-01-27T10:07:32;97228.56;;;-1.12;100.00
9139;BME280;4604;48.616;9.548;2023-01-27T10:10:25;97233.63;;;-1.09;100.00
9139;BME280;4604;48.616;9.548;2023-01-27T10:13:07;97232.47;;;-1.02;100.00
9139;BME280;4604;48.616;9.548;2023-01-27T10:15:48;97235.09;;;-1.03;100.00
9139;BME280;4604;48.616;9.548;2023-01-27T10:18:33;97252.03;;;-0.95;100.00
9139;BME280;4604;48.616;9.548;2023-01-27T10:21:09;97252.25;;;-0.79;100.00
9139;BME280;4604;48.616;9.548;2023-01-27T10:23:45;97256.00;;;-0.86;100.00
9139;BME280;4604;48.616;9.548;2023-01-27T10:26:24;97252.41;;;-0.82;100.00
9139;BME280;4604;48.616;9.548;2023-01-27T10:29:01;97259.38;;;-0.62;100.00
9139;BME280;4604;48.616;9.548;2023-01-27T10:31:34;97248.97;;;-0.82;100.00
9139;BME280;4604;48.616;9.548;2023-01-27T10:34:07;97253.75;;;-0.73;100.00
9139;BME280;4604;48.616;9.548;2023-01-27T10:36:45;97250.34;;;-0.74;100.00
9139;BME280;4604;48.616;9.548;2023-01-27T10:39:19;97256.94;;;-0.67;100.00
9139;BME280;4604;48.616;9.548;2023-01-27T10:41:55;97242.84;;;-0.59;100.00
9139;BME280;4604;48.616;9.548;2023-01-27T10:44:40;97233.66;;;-0.46;100.00
9139;BME280;4604;48.616;9.548;2023-01-27T10:47:17;97250.84;;;-0.44;100.00
9139;BME280;4604;48.616;9.548;2023-01-27T10:49:49;97252.78;;;-0.49;100.00
9139;BME280;4604;48.616;9.548;2023-01-27T10:52:20;97240.34;;;-0.61;100.00
9139;BME280;4604;48.616;9.548;2023-01-27T10:54:52;97257.69;;;-0.43;100.00
9139;BME280;4604;48.616;9.548;2023-01-27T10:57:26;97259.00;;;-0.32;100.00
9139;BME280;4604;48.616;9.548;2023-01-27T11:00:01;97232.94;;;-0.50;100.00
9139;BME280;4604;48.616;9.548;2023-01-27T11:02:33;97251.69;;;-0.43;100.00
9139;BME280;4604;48.616;9.548;2023-01-27T11:05:07;97255.06;;;-0.41;100.00
9139;BME280;4604;48.616;9.548;2023-01-27T11:07:44;97260.91;;;-0.36;100.00
9139;BME280;4604;48.616;9.548;2023-01-27T11:10:16;97255.44;;;-0.30;100.00
9139;BME280;4604;48.616;9.548;2023-01-27T11:12:46;97234.03;;;-0.35;100.00
9139;BME280;4604;48.616;9.548;2023-01-27T11:15:16;97255.13;;;-0.43;100.00
9139;BME280;4604;48.616;9.548;2023-01-27T11:17:48;97248.81;;;-0.57;100.00
9139;BME280;4604;48.616;9.548;2023-01-27T11:20:26;97251.13;;;-0.29;100.00
9139;BME280;4604;48.616;9.548;2023-01-27T11:22:56;97248.44;;;-0.28;99.85
9139;BME280;4604;48.616;9.548;2023-01-27T11:25:27;97213.31;;;-0.55;100.00
9139;BME280;4604;48.616;9.548;2023-01-27T11:28:03;97234.38;;;-0.43;100.00
9139;BME280;4604;48.616;9.548;2023-01-27T11:30:36;97229.13;;;-0.41;100.00
9139;BME280;4604;48.616;9.548;2023-01-27T11:33:12;97204.41;;;-0.50;100.00
9139;BME280;4604;48.616;9.548;2023-01-27T11:35:43;97212.91;;;-0.26;100.00
9139;BME280;4604;48.616;9.548;2023-01-27T11:38:13;97221.94;;;-0.14;100.00
9139;BME280;4604;48.616;9.548;2023-01-27T11:40:41;97230.50;;;0.07;97.90
9139;BME280;4604;48.616;9.548;2023-01-27T11:43:13;97227.69;;;-0.07;98.89
9139;BME280;4604;48.616;9.548;2023-01-27T11:45:42;97225.69;;;-0.21;100.00
9139;BME280;4604;48.616;9.548;2023-01-27T11:48:13;97224.72;;;-0.18;100.00
9139;BME280;4604;48.616;9.548;2023-01-27T11:50:43;97208.38;;;-0.20;100.00
9139;BME280;4604;48.616;9.548;2023-01-27T11:53:16;97203.00;;;-0.16;100.00
9139;BME280;4604;48.616;9.548;2023-01-27T11:55:47;97219.69;;;-0.03;100.00
9139;BME280;4604;48.616;9.548;2023-01-27T11:58:20;97218.66;;;0.02;100.00
9139;BME280;4604;48.616;9.548;2023-01-27T12:00:52;97213.97;;;0.10;100.00
9139;BME280;4604;48.616;9.548;2023-01-27T12:03:22;97194.41;;;0.03;99.93
9139;BME280;4604;48.616;9.548;2023-01-27T12:05:55;97206.91;;;0.13;98.49
9139;BME280;4604;48.616;9.548;2023-01-27T12:08:35;97207.63;;;0.36;95.25
9139;BME280;4604;48.616;9.548;2023-01-27T12:11:16;97205.78;;;0.19;95.78
9139;BME280;4604;48.616;9.548;2023-01-27T12:13:47;97211.28;;;0.32;96.31
9139;BME280;4604;48.616;9.548;2023-01-27T12:16:14;97216.88;;;0.23;96.76
9139;BME280;4604;48.616;9.548;2023-01-27T12:18:48;97217.28;;;0.13;99.33
9139;BME280;4604;48.616;9.548;2023-01-27T12:21:17;97215.19;;;0.21;96.91
9139;BME280;4604;48.616;9.548;2023-01-27T12:23:50;97217.53;;;0.07;97.53
9139;BME280;4604;48.616;9.548;2023-01-27T12:26:30;97185.75;;;-0.17;99.38
9139;BME280;4604;48.616;9.548;2023-01-27T12:29:03;97202.31;;;-0.01;99.25
9139;BME280;4604;48.616;9.548;2023-01-27T12:31:40;97202.06;;;0.06;99.96
9139;BME280;4604;48.616;9.548;2023-01-27T12:34:20;97206.75;;;0.16;96.89
9139;BME280;4604;48.616;9.548;2023-01-27T12:36:51;97203.28;;;0.17;96.72
9139;BME280;4604;48.616;9.548;2023-01-27T12:39:29;97192.47;;;0.08;97.11
9139;BME280;4604;48.616;9.548;2023-01-27T12:41:57;97191.59;;;0.07;97.18
9139;BME280;4604;48.616;9.548;2023-01-27T12:44:23;97200.25;;;0.08;99.66
9139;BME280;4604;48.616;9.548;2023-01-27T12:46:58;97194.56;;;0.18;97.77
9139;BME280;4604;48.616;9.548;2023-01-27T12:49:31;97199.41;;;0.26;95.81
9139;BME280;4604;48.616;9.548;2023-01-27T12:52:01;97186.41;;;0.07;98.43
9139;BME280;4604;48.616;9.548;2023-01-27T12:54:31;97196.03;;;0.05;99.86
9139;BME280;4604;48.616;9.548;2023-01-27T12:57:01;97186.19;;;0.12;99.47
9139;BME280;4604;48.616;9.548;2023-01-27T12:59:28;97185.66;;;0.24;97.26
9139;BME280;4604;48.616;9.548;2023-01-27T13:02:00;97179.22;;;0.33;97.05
9139;BME280;4604;48.616;9.548;2023-01-27T13:04:30;97180.47;;;0.24;96.41
9139;BME280;4604;48.616;9.548;2023-01-27T13:07:05;97175.41;;;0.21;96.58
9139;BME280;4604;48.616;9.548;2023-01-27T13:09:35;97156.47;;;0.00;97.66
9139;BME280;4604;48.616;9.548;2023-01-27T13:12:14;97169.09;;;0.08;98.75
9139;BME280;4604;48.616;9.548;2023-01-27T13:14:42;97171.00;;;0.23;99.17
9139;BME280;4604;48.616;9.548;2023-01-27T13:17:25;97171.69;;;0.27;97.79
9139;BME280;4604;48.616;9.548;2023-01-27T13:19:54;97172.41;;;0.30;97.40
9139;BME280;4604;48.616;9.548;2023-01-27T13:22:28;97179.22;;;0.33;96.21
9139;BME280;4604;48.616;9.548;2023-01-27T13:25:02;97166.66;;;0.24;96.41
9139;BME280;4604;48.616;9.548;2023-01-27T13:27:37;97170.16;;;0.23;96.81
9139;BME280;4604;48.616;9.548;2023-01-27T13:30:09;97189.78;;;0.28;96.78